Morrisonville, WI (53571)

12:31 PM CDT on May 04, 2015 (GMT -0500)
Wx9TRS | | Change Station
CLOSE
Current Station
Personal Weather Station
Location: DeForest, WI
Elevation: 945 ft
Nearby Weather Stations

Elev 945 ft 43.25 °N, 89.36 °W | Updated 56 seconds ago

Mostly Cloudy
Mostly Cloudy
68.1 °F
Feels Like 68.1 °F
N
0.0
Wind Variable Wind from North
Gusts 0.0 mph

Today
High -- | Low -- °F
--% Chance of Precip.
Yesterday
High -- | Low -- °F
Precip. -- in
5:46 AM 8:02 PM
Full, 100% visible
Pressure 30.11 in
Visibility 10.0 miles
Clouds Few 3200 ft
Mostly Cloudy 25000 ft
Dew Point 55 °F
Humidity 62%
Rainfall 0.00 in
Snow Depth Not available.
UV 5 out of 12
Pollen 4.40 out of 12
Air Quality Not available.
Flu Activity Local Activity
METAR KMSN 041653Z 02008KT 10SM FEW032 BKN250 21/13 A3011 RMK AO2 SLP195 T02060128

More Conditions Fewer Conditions

Pressure 30.11 in
Visibility 10.0 miles
Clouds Few 3200 ft
Mostly Cloudy 25000 ft
Dew Point 55 °F
Humidity 62%
Rainfall 0.00 in
Snow Depth Not available.
UV 5 out of 12
Pollen 4.40 out of 12
Air Quality Not available.
Flu Activity Local Activity
METAR KMSN 041653Z 02008KT 10SM FEW032 BKN250 21/13 A3011 RMK AO2 SLP195 T02060128

More Conditions Fewer Conditions

Nepal has a long way to go to dig out and rebuild from a devastating earthquake. We have teamed up with several charities and organizations to make contributing to the relief effort as easy as possible.
How you can help: Portlight Strategies | Red Cross

10-Day Weather Forecast

Almanac

Astronomy

May. 04, 2015 Rise Set
Actual Time
Civil Twilight
Nautical Twilight
Astronomical Twilight
Moon
Length of Visible Light
Length of Day
Tomorrow will be .
, % of the Moon is Illuminated

Today's Extremes

State Highs State Lows

Community

WunderPhotos

Upload Photos

1,818,659 photos uploaded!

WunderBlogs® & News

Nearby

Air Quality

  Air Quality AQ Index Pollutant
Not available.

Snow Depth

Station Depth Elevation

Earthquake Activity

City Distance Mag. Time & Date
Minimum magnitude displayed is 2.5.

Coastal Water Temperatures

Place Temperature

Stations

Nearby Weather Stations

Station Location Temp. Windchill Dew Point Humidity Wind Precip. Elev Updated Type